createdAt,value
2022-08-17T00:00:34.595Z,30.070
2022-08-17T00:05:15.580Z,30.071
2022-08-17T00:10:15.627Z,30.071
2022-08-17T00:15:15.736Z,30.073
2022-08-17T00:20:15.778Z,30.070
2022-08-17T00:25:15.798Z,30.072
2022-08-17T00:30:15.655Z,30.071
2022-08-17T00:35:15.597Z,30.072
2022-08-17T00:40:15.758Z,30.071
2022-08-17T00:45:15.628Z,30.075
2022-08-17T00:50:15.642Z,30.076
2022-08-17T00:55:15.784Z,30.075
2022-08-17T01:00:16.537Z,30.075
2022-08-17T01:05:15.697Z,30.073
2022-08-17T01:10:57.116Z,30.074
2022-08-17T01:15:15.724Z,30.076
2022-08-17T01:20:15.690Z,30.077
2022-08-17T01:25:15.746Z,30.079
2022-08-17T01:30:54.316Z,30.077
2022-08-17T01:35:15.726Z,30.079
2022-08-17T01:40:15.880Z,30.079
2022-08-17T01:45:15.757Z,30.079
2022-08-17T01:50:15.808Z,30.082
2022-08-17T01:55:15.771Z,30.080
2022-08-17T02:00:15.802Z,30.077
2022-08-17T02:05:15.779Z,30.078
2022-08-17T02:10:18.955Z,30.076
2022-08-17T02:15:15.797Z,30.077
2022-08-17T02:20:15.780Z,30.078
2022-08-17T02:25:15.796Z,30.077
2022-08-17T02:30:59.851Z,30.076
2022-08-17T02:35:15.888Z,30.076
2022-08-17T02:40:15.943Z,30.076
2022-08-17T02:45:15.852Z,30.076
2022-08-17T02:50:15.862Z,30.077
2022-08-17T02:55:15.930Z,30.074
2022-08-17T03:00:16.081Z,30.074
2022-08-17T03:05:16.003Z,30.075
2022-08-17T03:10:16.060Z,30.073
2022-08-17T03:15:16.003Z,30.075
2022-08-17T03:20:15.947Z,30.073
2022-08-17T03:25:15.993Z,30.074
2022-08-17T03:30:16.014Z,30.069
2022-08-17T03:35:15.987Z,30.071
2022-08-17T03:40:16.065Z,30.072
2022-08-17T03:45:15.987Z,30.073
2022-08-17T03:50:16.137Z,30.071
2022-08-17T03:55:16.060Z,30.069
2022-08-17T04:00:17.674Z,30.069
2022-08-17T04:05:17.322Z,30.067
2022-08-17T04:10:17.214Z,30.065
2022-08-17T04:15:17.148Z,30.066
2022-08-17T04:20:17.229Z,30.064
2022-08-17T04:25:17.117Z,30.059
2022-08-17T04:30:17.220Z,30.059
2022-08-17T04:35:17.128Z,30.056
2022-08-17T04:40:17.394Z,30.057
2022-08-17T04:45:17.336Z,30.053
2022-08-17T04:50:17.117Z,30.051
2022-08-17T04:55:17.139Z,30.053
2022-08-17T05:00:17.130Z,30.054
2022-08-17T05:05:17.165Z,30.053
2022-08-17T05:10:17.184Z,30.052
2022-08-17T05:15:17.286Z,30.052
2022-08-17T05:20:17.172Z,30.051
2022-08-17T05:25:17.239Z,30.048
2022-08-17T05:30:17.360Z,30.045
2022-08-17T05:35:17.356Z,30.044
2022-08-17T05:40:17.365Z,30.042
2022-08-17T05:45:23.642Z,30.043
2022-08-17T05:50:18.089Z,30.041
2022-08-17T05:55:17.283Z,30.040
2022-08-17T06:00:20.274Z,30.038
2022-08-17T06:05:17.336Z,30.038
2022-08-17T06:10:17.356Z,30.038
2022-08-17T06:15:17.321Z,30.038
2022-08-17T06:20:17.375Z,30.040
2022-08-17T06:25:17.313Z,30.039
2022-08-17T06:30:17.326Z,30.038
2022-08-17T06:35:17.430Z,30.035
2022-08-17T06:40:17.427Z,30.034
2022-08-17T06:45:15.304Z,30.034
2022-08-17T06:50:15.573Z,30.030
2022-08-17T06:55:18.047Z,30.030
2022-08-17T07:00:15.415Z,30.027
2022-08-17T07:05:15.374Z,30.027
2022-08-17T07:10:15.412Z,30.028
2022-08-17T07:15:15.429Z,30.027
2022-08-17T07:20:15.471Z,30.027
2022-08-17T07:25:16.056Z,30.027
2022-08-17T07:30:15.446Z,30.026
2022-08-17T07:35:15.699Z,30.022
2022-08-17T07:40:16.831Z,30.020
2022-08-17T07:45:15.736Z,30.017
2022-08-17T07:50:15.512Z,30.021
2022-08-17T07:55:15.529Z,30.017
2022-08-17T08:00:16.290Z,30.021
2022-08-17T08:05:15.519Z,30.017
2022-08-17T08:10:15.675Z,30.018
2022-08-17T08:15:15.708Z,30.017
2022-08-17T08:20:37.557Z,30.017
2022-08-17T08:25:15.641Z,30.014
2022-08-17T08:30:15.638Z,30.013
2022-08-17T08:35:15.655Z,30.012
2022-08-17T08:40:15.728Z,30.012
2022-08-17T08:45:15.694Z,30.009
2022-08-17T08:50:37.728Z,30.009
2022-08-17T08:55:15.702Z,30.009
2022-08-17T09:00:15.781Z,30.012
2022-08-17T09:05:16.161Z,30.008
2022-08-17T09:10:15.756Z,30.013
2022-08-17T09:15:15.666Z,30.010
2022-08-17T09:20:27.951Z,30.011
2022-08-17T09:25:15.766Z,30.010
2022-08-17T09:30:16.025Z,30.010
2022-08-17T09:35:15.812Z,30.010
2022-08-17T09:40:16.089Z,30.011
2022-08-17T09:45:15.790Z,30.010
2022-08-17T09:50:15.865Z,30.011
2022-08-17T09:55:15.805Z,30.013
2022-08-17T10:00:15.952Z,30.015
2022-08-17T10:05:15.777Z,30.012
2022-08-17T10:10:15.804Z,30.009
2022-08-17T10:15:15.765Z,30.015
2022-08-17T10:20:15.914Z,30.017
2022-08-17T10:25:23.588Z,30.018
2022-08-17T10:30:16.220Z,30.016
2022-08-17T10:35:16.015Z,30.017
2022-08-17T10:40:16.008Z,30.019
2022-08-17T10:45:15.903Z,30.021
2022-08-17T10:50:15.894Z,30.021
2022-08-17T10:55:15.971Z,30.024
2022-08-17T11:00:15.925Z,30.020
2022-08-17T11:05:16.067Z,30.020
2022-08-17T11:10:15.909Z,30.018
2022-08-17T11:15:16.068Z,30.018
2022-08-17T11:20:16.064Z,30.017
2022-08-17T11:25:15.982Z,30.016
2022-08-17T11:30:15.971Z,30.013
2022-08-17T11:35:15.979Z,30.014
2022-08-17T11:40:16.179Z,30.014
2022-08-17T11:45:31.916Z,30.015
2022-08-17T11:50:16.028Z,30.012
2022-08-17T11:55:34.740Z,30.014
2022-08-17T12:00:16.181Z,30.014
2022-08-17T12:05:16.178Z,30.015
2022-08-17T12:10:16.266Z,30.014
2022-08-17T12:15:16.062Z,30.011
2022-08-17T12:20:16.151Z,30.008
2022-08-17T12:25:16.128Z,30.007
2022-08-17T12:30:16.079Z,30.004
2022-08-17T12:35:16.021Z,30.005
2022-08-17T12:40:16.163Z,30.004
2022-08-17T12:45:16.204Z,30.005
2022-08-17T12:50:28.820Z,30.006
2022-08-17T12:55:16.257Z,30.006
2022-08-17T13:00:16.401Z,30.006
2022-08-17T13:05:16.148Z,30.006
2022-08-17T13:10:16.166Z,30.004
2022-08-17T13:15:16.275Z,30.004
2022-08-17T13:20:16.437Z,30.005
2022-08-17T13:25:16.174Z,30.000
2022-08-17T13:30:16.193Z,29.999
2022-08-17T13:35:26.571Z,29.995
2022-08-17T13:40:16.272Z,29.997
2022-08-17T13:45:32.320Z,29.995
2022-08-17T13:50:16.284Z,29.995
2022-08-17T13:55:16.454Z,29.995
2022-08-17T14:00:16.299Z,29.996
2022-08-17T14:05:16.279Z,29.997
2022-08-17T14:10:16.368Z,30.000
2022-08-17T14:15:16.432Z,30.000
2022-08-17T14:20:16.486Z,29.999
2022-08-17T14:25:16.340Z,30.000
2022-08-17T14:30:16.437Z,29.999
2022-08-17T14:35:16.436Z,30.003
2022-08-17T14:40:16.609Z,30.002
2022-08-17T14:45:31.723Z,30.002
2022-08-17T14:50:18.586Z,30.002
2022-08-17T14:55:16.462Z,29.998
2022-08-17T15:00:16.729Z,30.000
2022-08-17T15:05:16.619Z,30.001
2022-08-17T15:10:16.495Z,30.000
2022-08-17T15:15:16.488Z,30.003
2022-08-17T15:20:16.568Z,30.005
2022-08-17T15:25:16.627Z,30.006
2022-08-17T15:30:16.632Z,30.010
2022-08-17T15:35:16.495Z,30.011
2022-08-17T15:40:16.682Z,30.010
2022-08-17T15:45:16.441Z,30.010
2022-08-17T15:50:16.599Z,30.009
2022-08-17T15:55:18.697Z,30.011
2022-08-17T16:00:16.622Z,30.012
2022-08-17T16:05:17.566Z,30.011
2022-08-17T16:10:19.099Z,30.009
2022-08-17T16:15:16.728Z,30.008
2022-08-17T16:20:20.712Z,30.009
2022-08-17T16:25:16.662Z,30.007
2022-08-17T16:30:17.915Z,30.008
2022-08-17T16:35:16.644Z,30.009
2022-08-17T16:40:16.854Z,30.004
2022-08-17T16:45:16.612Z,30.007
2022-08-17T16:50:16.755Z,30.004
2022-08-17T16:55:16.649Z,30.002
2022-08-17T17:00:16.735Z,29.999
2022-08-17T17:05:16.681Z,30.000
2022-08-17T17:10:16.894Z,30.002
2022-08-17T17:15:21.891Z,29.999
2022-08-17T17:20:16.825Z,29.999
2022-08-17T17:25:16.746Z,29.996
2022-08-17T17:30:16.884Z,29.996
2022-08-17T17:35:17.040Z,29.993
2022-08-17T17:40:16.809Z,29.995
2022-08-17T17:45:16.822Z,29.992
2022-08-17T17:50:16.910Z,29.990
2022-08-17T17:55:17.010Z,29.987
2022-08-17T18:00:16.879Z,29.986
2022-08-17T18:05:16.930Z,29.984
2022-08-17T18:10:29.797Z,29.981
2022-08-17T18:15:17.019Z,29.981
2022-08-17T18:20:16.982Z,29.979
2022-08-17T18:25:16.846Z,29.978
2022-08-17T18:30:16.891Z,29.977
2022-08-17T18:35:16.891Z,29.976
2022-08-17T18:40:17.136Z,29.971
2022-08-17T18:45:16.847Z,29.970
2022-08-17T18:50:16.836Z,29.968
2022-08-17T18:55:16.867Z,29.962
2022-08-17T19:00:16.872Z,29.961
2022-08-17T19:05:17.309Z,29.959
2022-08-17T19:10:17.051Z,29.959
2022-08-17T19:15:17.013Z,29.956
2022-08-17T19:20:17.028Z,29.955
2022-08-17T19:25:17.218Z,29.954
2022-08-17T19:30:17.103Z,29.952
2022-08-17T19:35:17.761Z,29.950
2022-08-17T19:40:35.131Z,29.949
2022-08-17T19:45:17.067Z,29.947
2022-08-17T19:50:17.154Z,29.948
2022-08-17T19:55:20.545Z,29.948
2022-08-17T20:00:17.130Z,29.947
2022-08-17T20:05:17.093Z,29.947
2022-08-17T20:10:17.102Z,29.945
2022-08-17T20:15:17.099Z,29.944
2022-08-17T20:20:19.284Z,29.945
2022-08-17T20:25:17.079Z,29.941
2022-08-17T20:30:17.311Z,29.943
2022-08-17T20:35:17.152Z,29.942
2022-08-17T20:40:17.268Z,29.940
2022-08-17T20:45:17.338Z,29.934
2022-08-17T20:50:17.167Z,29.931
2022-08-17T20:55:17.131Z,29.928
2022-08-17T21:00:17.383Z,29.931
2022-08-17T21:05:17.205Z,29.928
2022-08-17T21:10:17.235Z,29.925
2022-08-17T21:15:17.242Z,29.922
2022-08-17T21:20:17.285Z,29.919
2022-08-17T21:25:17.231Z,29.922
2022-08-17T21:30:17.227Z,29.919
2022-08-17T21:35:17.364Z,29.921
2022-08-17T21:40:17.406Z,29.925
2022-08-17T21:45:17.252Z,29.917
2022-08-17T21:50:17.450Z,29.915
2022-08-17T21:55:17.322Z,29.915
2022-08-17T22:00:17.444Z,29.912
2022-08-17T22:05:17.351Z,29.912
2022-08-17T22:10:17.332Z,29.909
2022-08-17T22:15:17.380Z,29.907
2022-08-17T22:20:17.387Z,29.906
2022-08-17T22:25:17.330Z,29.906
2022-08-17T22:30:17.388Z,29.905
2022-08-17T22:35:17.345Z,29.903
2022-08-17T22:40:15.460Z,29.903
2022-08-17T22:45:15.390Z,29.900
2022-08-17T22:50:15.461Z,29.899
2022-08-17T22:55:15.346Z,29.905
2022-08-17T23:00:15.671Z,29.904
2022-08-17T23:05:15.463Z,29.901
2022-08-17T23:10:15.430Z,29.901
2022-08-17T23:15:15.460Z,29.901
2022-08-17T23:20:15.472Z,29.899
2022-08-17T23:25:15.778Z,29.898
2022-08-17T23:30:15.480Z,29.899
2022-08-17T23:35:15.470Z,29.903
2022-08-17T23:40:15.648Z,29.901
2022-08-17T23:45:15.628Z,29.899
2022-08-17T23:50:15.570Z,29.899
2022-08-17T23:55:15.554Z,29.901
